Neligh, NE

2:12 AM CDT on October 31, 2014 (GMT -0500)
The O'Neill Municipal-Baker | Change Station
CLOSE
Current Station
Airport
Location: O'Neill,
Elevation: 2031 ft
Nearby Weather Stations

Elev 2031 ft 42.47 °N, 98.69 °W | Updated 17 minutes ago

Overcast
Overcast
32 °F
Feels Like 22 °F
N
16
Wind Variable Wind from NNE
Gusts 22 mph

Today
High -- | Low -- °F
--% Chance of Precip.
Yesterday
High -- | Low -- °F
Precip. -- in
8:03 AM 6:27 PM
First Quarter, 52% visible
Pressure 30.52 in
Visibility 10.0 miles
Clouds Overcast 2000 ft
Windchill 22 °F
Dew Point 26 °F
Humidity 78%
Rainfall 0.00 in
Snow Depth Not available.
UV 0 out of 12
Pollen 1.50 out of 12
Air Quality Not available.
Flu Activity Not available.
METAR KONL 310655Z AUTO 02014G19KT 10SM OVC020 00/M03 A3052 RMK AO2 T00031032

More Conditions Fewer Conditions

Pressure 30.52 in
Visibility 10.0 miles
Clouds Overcast 2000 ft
Windchill 22 °F
Dew Point 26 °F
Humidity 78%
Rainfall 0.00 in
Snow Depth Not available.
UV 0 out of 12
Pollen 1.50 out of 12
Air Quality Not available.
Flu Activity Not available.
METAR KONL 310655Z AUTO 02014G19KT 10SM OVC020 00/M03 A3052 RMK AO2 T00031032

More Conditions Fewer Conditions

10-Day Weather Forecast

Almanac

Astronomy

Oct. 31, 2014 Rise Set
Actual Time
Civil Twilight
Nautical Twilight
Astronomical Twilight
Moon
Length of Visible Light
Length of Day
Tomorrow will be .
, % of the Moon is Illuminated

Today's Extremes

State Highs State Lows

Community

WunderPhotos

Upload Photos

1,766,571 photos uploaded!

WunderBlogs® & News

Nearby

Air Quality

  Air Quality AQ Index Pollutant
Not available.

Snow Depth

Station Depth Elevation

Earthquake Activity

City Distance Mag. Time & Date
Minimum magnitude displayed is 2.5.

Coastal Water Temperatures

Place Temperature

Nearby Weather Stations